LIBF

Foggia Gino Lisa Airport

Airport
ICAO code
LIBF
IATA Code
FOG
Summary
ICAO Region
EUR
ICAO Territory
Location

Foggia, Apulia

Serving
Foggia
Elevation
266 ft
Coordinates
41° 25' 53" N , 15° 32' 11" E
KCC
Metar
Observation
LIBF 031750Z VRB02KT CAVOK 10/01 Q1023
Station
FOGGIA/GINO LISA
Date/Time
2023-02-03 17:50:00
Wind speed
02 kts
Lowest cloud amount
clouds and visibility OK
Temperature
10°C
Dew point
1°C
Humidity
53%
QNH
1023 hPa
Weather condition
n/a

Foggia "Gino Lisa" Airport is an airport serving Foggia, Italy.

Climatology

Warm mediterranean climate (Köppen climate classification Csa)

Runways

Designator Length Width Surface Rops
16/34 1440 45 ASP No/No

Airport map

Aerial View

SKYbrary Partners:

Safety knowledge contributed by: